sensor_id;sensor_type;location;lat;lon;timestamp;P1;durP1;ratioP1;P2;durP2;ratioP2
43696;SDS011;29301;47.620;19.560;2023-05-07T00:01:36;0.40;;;0.30;;
43696;SDS011;29301;47.620;19.560;2023-05-07T00:04:02;0.40;;;0.30;;
43696;SDS011;29301;47.620;19.560;2023-05-07T00:06:28;0.40;;;0.30;;
43696;SDS011;29301;47.620;19.560;2023-05-07T00:08:56;0.45;;;0.40;;
43696;SDS011;29301;47.620;19.560;2023-05-07T00:11:21;0.40;;;0.40;;
43696;SDS011;29301;47.620;19.560;2023-05-07T00:13:47;0.40;;;0.30;;
43696;SDS011;29301;47.620;19.560;2023-05-07T00:16:13;0.40;;;0.30;;
43696;SDS011;29301;47.620;19.560;2023-05-07T00:18:39;0.40;;;0.30;;
43696;SDS011;29301;47.620;19.560;2023-05-07T00:21:05;0.30;;;0.30;;
43696;SDS011;29301;47.620;19.560;2023-05-07T00:23:30;0.40;;;0.30;;
43696;SDS011;29301;47.620;19.560;2023-05-07T00:25:56;0.30;;;0.30;;
43696;SDS011;29301;47.620;19.560;2023-05-07T00:28:22;0.30;;;0.30;;
43696;SDS011;29301;47.620;19.560;2023-05-07T00:30:47;0.40;;;0.30;;
43696;SDS011;29301;47.620;19.560;2023-05-07T00:33:13;0.40;;;0.30;;
43696;SDS011;29301;47.620;19.560;2023-05-07T00:35:38;0.40;;;0.30;;
43696;SDS011;29301;47.620;19.560;2023-05-07T00:38:04;0.45;;;0.40;;
43696;SDS011;29301;47.620;19.560;2023-05-07T00:40:30;0.40;;;0.38;;
43696;SDS011;29301;47.620;19.560;2023-05-07T00:42:55;0.40;;;0.30;;
43696;SDS011;29301;47.620;19.560;2023-05-07T00:45:23;0.40;;;0.30;;
43696;SDS011;29301;47.620;19.560;2023-05-07T00:47:57;0.50;;;0.40;;
43696;SDS011;29301;47.620;19.560;2023-05-07T00:50:25;0.40;;;0.40;;
43696;SDS011;29301;47.620;19.560;2023-05-07T00:52:52;0.40;;;0.30;;
43696;SDS011;29301;47.620;19.560;2023-05-07T00:55:18;0.43;;;0.38;;
43696;SDS011;29301;47.620;19.560;2023-05-07T00:57:44;0.40;;;0.40;;
43696;SDS011;29301;47.620;19.560;2023-05-07T01:00:11;0.40;;;0.30;;
43696;SDS011;29301;47.620;19.560;2023-05-07T01:02:41;0.40;;;0.30;;
43696;SDS011;29301;47.620;19.560;2023-05-07T01:05:07;0.50;;;0.40;;
43696;SDS011;29301;47.620;19.560;2023-05-07T01:07:36;0.40;;;0.30;;
43696;SDS011;29301;47.620;19.560;2023-05-07T01:10:04;0.40;;;0.30;;
43696;SDS011;29301;47.620;19.560;2023-05-07T01:12:32;0.40;;;0.30;;
43696;SDS011;29301;47.620;19.560;2023-05-07T01:14:58;0.40;;;0.32;;
43696;SDS011;29301;47.620;19.560;2023-05-07T01:17:25;0.40;;;0.30;;
43696;SDS011;29301;47.620;19.560;2023-05-07T01:19:51;0.40;;;0.40;;
43696;SDS011;29301;47.620;19.560;2023-05-07T01:22:23;0.40;;;0.30;;
43696;SDS011;29301;47.620;19.560;2023-05-07T01:24:58;0.40;;;0.40;;
43696;SDS011;29301;47.620;19.560;2023-05-07T01:27:26;0.40;;;0.30;;
43696;SDS011;29301;47.620;19.560;2023-05-07T01:29:52;0.40;;;0.40;;
43696;SDS011;29301;47.620;19.560;2023-05-07T01:32:22;0.40;;;0.30;;
43696;SDS011;29301;47.620;19.560;2023-05-07T01:34:56;0.40;;;0.30;;
43696;SDS011;29301;47.620;19.560;2023-05-07T01:37:23;0.40;;;0.40;;
43696;SDS011;29301;47.620;19.560;2023-05-07T01:39:50;0.40;;;0.30;;
43696;SDS011;29301;47.620;19.560;2023-05-07T01:42:17;0.40;;;0.30;;
43696;SDS011;29301;47.620;19.560;2023-05-07T01:44:42;0.40;;;0.30;;
43696;SDS011;29301;47.620;19.560;2023-05-07T01:47:08;0.40;;;0.30;;
43696;SDS011;29301;47.620;19.560;2023-05-07T01:49:34;0.40;;;0.38;;
43696;SDS011;29301;47.620;19.560;2023-05-07T01:52:01;0.50;;;0.40;;
43696;SDS011;29301;47.620;19.560;2023-05-07T01:54:27;0.47;;;0.40;;
43696;SDS011;29301;47.620;19.560;2023-05-07T01:56:53;0.40;;;0.30;;
43696;SDS011;29301;47.620;19.560;2023-05-07T01:59:20;0.40;;;0.30;;
43696;SDS011;29301;47.620;19.560;2023-05-07T02:01:45;0.40;;;0.30;;
43696;SDS011;29301;47.620;19.560;2023-05-07T02:04:12;0.50;;;0.40;;
43696;SDS011;29301;47.620;19.560;2023-05-07T02:06:38;0.30;;;0.30;;
43696;SDS011;29301;47.620;19.560;2023-05-07T02:09:03;0.50;;;0.40;;
43696;SDS011;29301;47.620;19.560;2023-05-07T02:11:29;0.40;;;0.35;;
43696;SDS011;29301;47.620;19.560;2023-05-07T02:13:55;0.40;;;0.38;;
43696;SDS011;29301;47.620;19.560;2023-05-07T02:16:20;0.40;;;0.30;;
43696;SDS011;29301;47.620;19.560;2023-05-07T02:18:47;0.40;;;0.30;;
43696;SDS011;29301;47.620;19.560;2023-05-07T02:21:13;0.40;;;0.40;;
43696;SDS011;29301;47.620;19.560;2023-05-07T02:23:39;0.40;;;0.40;;
43696;SDS011;29301;47.620;19.560;2023-05-07T02:26:05;0.40;;;0.38;;
43696;SDS011;29301;47.620;19.560;2023-05-07T02:28:31;0.40;;;0.40;;
43696;SDS011;29301;47.620;19.560;2023-05-07T02:30:56;0.40;;;0.30;;
43696;SDS011;29301;47.620;19.560;2023-05-07T02:33:24;0.40;;;0.30;;
43696;SDS011;29301;47.620;19.560;2023-05-07T02:35:50;0.40;;;0.40;;
43696;SDS011;29301;47.620;19.560;2023-05-07T02:38:17;0.40;;;0.40;;
43696;SDS011;29301;47.620;19.560;2023-05-07T02:40:43;0.50;;;0.40;;
43696;SDS011;29301;47.620;19.560;2023-05-07T02:43:08;0.43;;;0.40;;
43696;SDS011;29301;47.620;19.560;2023-05-07T02:45:34;0.40;;;0.40;;
43696;SDS011;29301;47.620;19.560;2023-05-07T02:48:01;0.40;;;0.35;;
43696;SDS011;29301;47.620;19.560;2023-05-07T02:50:26;0.40;;;0.30;;
43696;SDS011;29301;47.620;19.560;2023-05-07T02:52:52;0.40;;;0.30;;
43696;SDS011;29301;47.620;19.560;2023-05-07T02:55:18;0.30;;;0.30;;
43696;SDS011;29301;47.620;19.560;2023-05-07T02:57:44;0.32;;;0.30;;
43696;SDS011;29301;47.620;19.560;2023-05-07T03:00:10;0.40;;;0.40;;
43696;SDS011;29301;47.620;19.560;2023-05-07T03:02:37;0.40;;;0.30;;
43696;SDS011;29301;47.620;19.560;2023-05-07T03:05:03;0.30;;;0.30;;
43696;SDS011;29301;47.620;19.560;2023-05-07T03:07:29;0.40;;;0.30;;
43696;SDS011;29301;47.620;19.560;2023-05-07T03:09:54;0.40;;;0.40;;
43696;SDS011;29301;47.620;19.560;2023-05-07T03:12:20;0.40;;;0.40;;
43696;SDS011;29301;47.620;19.560;2023-05-07T03:14:45;0.50;;;0.40;;
43696;SDS011;29301;47.620;19.560;2023-05-07T03:17:11;0.40;;;0.30;;
43696;SDS011;29301;47.620;19.560;2023-05-07T03:19:37;0.30;;;0.30;;
43696;SDS011;29301;47.620;19.560;2023-05-07T03:22:03;0.40;;;0.32;;
43696;SDS011;29301;47.620;19.560;2023-05-07T03:24:28;0.40;;;0.30;;
43696;SDS011;29301;47.620;19.560;2023-05-07T03:26:54;0.30;;;0.30;;
43696;SDS011;29301;47.620;19.560;2023-05-07T03:29:20;0.50;;;0.40;;
43696;SDS011;29301;47.620;19.560;2023-05-07T03:31:45;0.43;;;0.35;;
43696;SDS011;29301;47.620;19.560;2023-05-07T03:34:11;0.40;;;0.32;;
43696;SDS011;29301;47.620;19.560;2023-05-07T03:36:37;0.40;;;0.40;;
43696;SDS011;29301;47.620;19.560;2023-05-07T03:39:02;0.40;;;0.30;;
43696;SDS011;29301;47.620;19.560;2023-05-07T03:41:28;0.40;;;0.30;;
43696;SDS011;29301;47.620;19.560;2023-05-07T03:43:54;0.50;;;0.40;;
43696;SDS011;29301;47.620;19.560;2023-05-07T03:46:20;0.43;;;0.40;;
43696;SDS011;29301;47.620;19.560;2023-05-07T03:48:46;0.40;;;0.40;;
43696;SDS011;29301;47.620;19.560;2023-05-07T03:51:11;0.50;;;0.40;;
43696;SDS011;29301;47.620;19.560;2023-05-07T03:53:37;0.50;;;0.40;;
43696;SDS011;29301;47.620;19.560;2023-05-07T03:56:03;0.40;;;0.30;;
43696;SDS011;29301;47.620;19.560;2023-05-07T03:58:29;0.40;;;0.30;;
43696;SDS011;29301;47.620;19.560;2023-05-07T04:00:54;0.50;;;0.40;;
43696;SDS011;29301;47.620;19.560;2023-05-07T04:03:20;0.45;;;0.40;;
43696;SDS011;29301;47.620;19.560;2023-05-07T04:05:46;0.50;;;0.40;;
43696;SDS011;29301;47.620;19.560;2023-05-07T04:08:12;0.40;;;0.35;;
43696;SDS011;29301;47.620;19.560;2023-05-07T04:10:37;0.40;;;0.30;;
43696;SDS011;29301;47.620;19.560;2023-05-07T04:13:03;0.40;;;0.40;;
43696;SDS011;29301;47.620;19.560;2023-05-07T04:15:28;0.45;;;0.40;;
43696;SDS011;29301;47.620;19.560;2023-05-07T04:17:54;0.40;;;0.30;;
43696;SDS011;29301;47.620;19.560;2023-05-07T04:20:20;0.43;;;0.40;;
43696;SDS011;29301;47.620;19.560;2023-05-07T04:22:45;0.45;;;0.40;;
43696;SDS011;29301;47.620;19.560;2023-05-07T04:25:11;0.40;;;0.40;;
43696;SDS011;29301;47.620;19.560;2023-05-07T04:27:37;0.40;;;0.40;;
43696;SDS011;29301;47.620;19.560;2023-05-07T04:30:03;0.40;;;0.30;;
43696;SDS011;29301;47.620;19.560;2023-05-07T04:32:29;0.40;;;0.40;;
43696;SDS011;29301;47.620;19.560;2023-05-07T04:34:55;0.30;;;0.30;;
43696;SDS011;29301;47.620;19.560;2023-05-07T04:37:21;0.40;;;0.30;;
43696;SDS011;29301;47.620;19.560;2023-05-07T04:39:47;0.43;;;0.32;;
43696;SDS011;29301;47.620;19.560;2023-05-07T04:42:16;0.40;;;0.40;;
43696;SDS011;29301;47.620;19.560;2023-05-07T04:44:45;0.40;;;0.30;;
43696;SDS011;29301;47.620;19.560;2023-05-07T04:47:11;0.50;;;0.40;;
43696;SDS011;29301;47.620;19.560;2023-05-07T04:49:40;0.30;;;0.30;;
43696;SDS011;29301;47.620;19.560;2023-05-07T04:52:06;0.40;;;0.40;;
43696;SDS011;29301;47.620;19.560;2023-05-07T04:54:31;0.40;;;0.32;;
43696;SDS011;29301;47.620;19.560;2023-05-07T04:56:57;0.40;;;0.30;;
43696;SDS011;29301;47.620;19.560;2023-05-07T04:59:23;0.40;;;0.30;;
43696;SDS011;29301;47.620;19.560;2023-05-07T05:01:48;0.40;;;0.30;;
43696;SDS011;29301;47.620;19.560;2023-05-07T05:04:14;0.40;;;0.30;;
43696;SDS011;29301;47.620;19.560;2023-05-07T05:06:40;0.40;;;0.30;;
43696;SDS011;29301;47.620;19.560;2023-05-07T05:09:06;0.45;;;0.30;;
43696;SDS011;29301;47.620;19.560;2023-05-07T05:11:31;0.40;;;0.30;;
43696;SDS011;29301;47.620;19.560;2023-05-07T05:13:58;0.40;;;0.30;;
43696;SDS011;29301;47.620;19.560;2023-05-07T05:16:24;0.45;;;0.35;;
43696;SDS011;29301;47.620;19.560;2023-05-07T05:18:50;0.40;;;0.30;;
43696;SDS011;29301;47.620;19.560;2023-05-07T05:21:17;0.40;;;0.30;;
43696;SDS011;29301;47.620;19.560;2023-05-07T05:23:43;0.30;;;0.30;;
43696;SDS011;29301;47.620;19.560;2023-05-07T05:26:08;0.45;;;0.40;;
43696;SDS011;29301;47.620;19.560;2023-05-07T05:28:34;0.30;;;0.30;;
43696;SDS011;29301;47.620;19.560;2023-05-07T05:31:00;0.40;;;0.40;;
43696;SDS011;29301;47.620;19.560;2023-05-07T05:33:25;0.40;;;0.30;;
43696;SDS011;29301;47.620;19.560;2023-05-07T05:35:51;0.40;;;0.30;;
43696;SDS011;29301;47.620;19.560;2023-05-07T05:38:18;0.40;;;0.30;;
43696;SDS011;29301;47.620;19.560;2023-05-07T05:40:44;0.30;;;0.30;;
43696;SDS011;29301;47.620;19.560;2023-05-07T05:43:09;0.40;;;0.40;;
43696;SDS011;29301;47.620;19.560;2023-05-07T05:45:35;0.40;;;0.30;;
43696;SDS011;29301;47.620;19.560;2023-05-07T05:48:01;0.40;;;0.30;;
43696;SDS011;29301;47.620;19.560;2023-05-07T05:50:26;0.40;;;0.30;;
43696;SDS011;29301;47.620;19.560;2023-05-07T05:52:52;0.40;;;0.30;;
43696;SDS011;29301;47.620;19.560;2023-05-07T05:55:18;0.40;;;0.30;;
43696;SDS011;29301;47.620;19.560;2023-05-07T05:57:44;0.40;;;0.30;;
43696;SDS011;29301;47.620;19.560;2023-05-07T06:00:09;0.40;;;0.30;;
43696;SDS011;29301;47.620;19.560;2023-05-07T06:02:36;0.40;;;0.30;;
43696;SDS011;29301;47.620;19.560;2023-05-07T06:05:01;0.40;;;0.30;;
43696;SDS011;29301;47.620;19.560;2023-05-07T06:07:27;0.30;;;0.30;;
43696;SDS011;29301;47.620;19.560;2023-05-07T06:09:53;0.40;;;0.30;;
43696;SDS011;29301;47.620;19.560;2023-05-07T06:12:19;0.40;;;0.30;;
43696;SDS011;29301;47.620;19.560;2023-05-07T06:14:45;0.30;;;0.30;;
43696;SDS011;29301;47.620;19.560;2023-05-07T06:17:11;0.40;;;0.30;;
43696;SDS011;29301;47.620;19.560;2023-05-07T06:19:37;0.40;;;0.30;;
43696;SDS011;29301;47.620;19.560;2023-05-07T06:22:02;0.40;;;0.30;;
43696;SDS011;29301;47.620;19.560;2023-05-07T06:24:28;0.40;;;0.30;;
43696;SDS011;29301;47.620;19.560;2023-05-07T06:26:54;0.40;;;0.30;;
43696;SDS011;29301;47.620;19.560;2023-05-07T06:29:20;0.32;;;0.30;;
43696;SDS011;29301;47.620;19.560;2023-05-07T06:31:45;0.40;;;0.30;;
43696;SDS011;29301;47.620;19.560;2023-05-07T06:34:11;0.30;;;0.30;;
43696;SDS011;29301;47.620;19.560;2023-05-07T06:36:39;0.40;;;0.30;;
43696;SDS011;29301;47.620;19.560;2023-05-07T06:39:06;0.40;;;0.30;;
43696;SDS011;29301;47.620;19.560;2023-05-07T06:41:31;0.47;;;0.38;;
43696;SDS011;29301;47.620;19.560;2023-05-07T06:43:57;0.40;;;0.30;;
43696;SDS011;29301;47.620;19.560;2023-05-07T06:46:23;0.47;;;0.30;;
43696;SDS011;29301;47.620;19.560;2023-05-07T06:48:48;0.30;;;0.30;;
43696;SDS011;29301;47.620;19.560;2023-05-07T06:51:14;0.40;;;0.30;;
43696;SDS011;29301;47.620;19.560;2023-05-07T06:53:40;0.40;;;0.30;;
43696;SDS011;29301;47.620;19.560;2023-05-07T06:56:05;0.40;;;0.30;;
43696;SDS011;29301;47.620;19.560;2023-05-07T06:58:31;0.40;;;0.30;;
43696;SDS011;29301;47.620;19.560;2023-05-07T07:00:57;0.30;;;0.20;;
43696;SDS011;29301;47.620;19.560;2023-05-07T07:03:23;0.40;;;0.30;;
43696;SDS011;29301;47.620;19.560;2023-05-07T07:05:51;0.30;;;0.20;;
43696;SDS011;29301;47.620;19.560;2023-05-07T07:08:20;0.40;;;0.30;;
43696;SDS011;29301;47.620;19.560;2023-05-07T07:10:47;0.40;;;0.30;;
43696;SDS011;29301;47.620;19.560;2023-05-07T07:13:13;0.30;;;0.20;;
43696;SDS011;29301;47.620;19.560;2023-05-07T07:15:39;0.30;;;0.20;;
43696;SDS011;29301;47.620;19.560;2023-05-07T07:18:05;0.40;;;0.30;;
43696;SDS011;29301;47.620;19.560;2023-05-07T07:20:31;0.40;;;0.20;;
43696;SDS011;29301;47.620;19.560;2023-05-07T07:22:57;0.20;;;0.20;;
43696;SDS011;29301;47.620;19.560;2023-05-07T07:25:23;0.30;;;0.20;;
43696;SDS011;29301;47.620;19.560;2023-05-07T07:27:48;0.35;;;0.20;;
43696;SDS011;29301;47.620;19.560;2023-05-07T07:30:14;0.30;;;0.20;;
43696;SDS011;29301;47.620;19.560;2023-05-07T07:32:40;0.30;;;0.20;;
43696;SDS011;29301;47.620;19.560;2023-05-07T07:35:06;0.38;;;0.20;;
43696;SDS011;29301;47.620;19.560;2023-05-07T07:37:32;0.35;;;0.22;;
43696;SDS011;29301;47.620;19.560;2023-05-07T07:39:58;0.20;;;0.20;;
43696;SDS011;29301;47.620;19.560;2023-05-07T07:42:24;0.28;;;0.20;;
43696;SDS011;29301;47.620;19.560;2023-05-07T07:44:50;0.13;;;0.13;;
43696;SDS011;29301;47.620;19.560;2023-05-07T07:47:16;0.22;;;0.15;;
43696;SDS011;29301;47.620;19.560;2023-05-07T07:49:41;0.20;;;0.20;;
43696;SDS011;29301;47.620;19.560;2023-05-07T07:52:07;0.20;;;0.20;;
43696;SDS011;29301;47.620;19.560;2023-05-07T07:54:33;0.20;;;0.20;;
43696;SDS011;29301;47.620;19.560;2023-05-07T07:56:59;0.20;;;0.20;;
43696;SDS011;29301;47.620;19.560;2023-05-07T07:59:24;0.20;;;0.20;;
43696;SDS011;29301;47.620;19.560;2023-05-07T08:01:50;0.20;;;0.20;;
43696;SDS011;29301;47.620;19.560;2023-05-07T08:04:17;0.20;;;0.20;;
43696;SDS011;29301;47.620;19.560;2023-05-07T08:06:42;0.20;;;0.20;;
43696;SDS011;29301;47.620;19.560;2023-05-07T08:09:14;0.26;;;0.20;;
43696;SDS011;29301;47.620;19.560;2023-05-07T08:11:40;0.20;;;0.20;;
43696;SDS011;29301;47.620;19.560;2023-05-07T08:14:06;0.30;;;0.20;;
43696;SDS011;29301;47.620;19.560;2023-05-07T08:16:31;0.20;;;0.20;;
43696;SDS011;29301;47.620;19.560;2023-05-07T08:18:57;0.20;;;0.20;;
43696;SDS011;29301;47.620;19.560;2023-05-07T08:21:23;0.22;;;0.20;;
43696;SDS011;29301;47.620;19.560;2023-05-07T08:23:48;0.20;;;0.20;;
43696;SDS011;29301;47.620;19.560;2023-05-07T08:26:14;0.22;;;0.15;;
43696;SDS011;29301;47.620;19.560;2023-05-07T08:28:40;0.20;;;0.20;;
43696;SDS011;29301;47.620;19.560;2023-05-07T08:31:05;0.20;;;0.20;;
43696;SDS011;29301;47.620;19.560;2023-05-07T08:33:31;0.20;;;0.20;;
43696;SDS011;29301;47.620;19.560;2023-05-07T08:35:57;0.20;;;0.20;;
43696;SDS011;29301;47.620;19.560;2023-05-07T08:38:24;0.32;;;0.20;;
43696;SDS011;29301;47.620;19.560;2023-05-07T08:40:49;0.20;;;0.20;;
43696;SDS011;29301;47.620;19.560;2023-05-07T08:43:15;0.20;;;0.20;;
43696;SDS011;29301;47.620;19.560;2023-05-07T08:45:43;0.35;;;0.20;;
43696;SDS011;29301;47.620;19.560;2023-05-07T08:48:15;0.40;;;0.20;;
43696;SDS011;29301;47.620;19.560;2023-05-07T08:50:41;0.20;;;0.20;;
43696;SDS011;29301;47.620;19.560;2023-05-07T08:53:07;0.28;;;0.20;;
43696;SDS011;29301;47.620;19.560;2023-05-07T08:55:33;0.22;;;0.20;;
43696;SDS011;29301;47.620;19.560;2023-05-07T08:57:59;0.17;;;0.13;;
43696;SDS011;29301;47.620;19.560;2023-05-07T09:00:25;0.30;;;0.20;;
43696;SDS011;29301;47.620;19.560;2023-05-07T09:02:52;0.20;;;0.10;;
43696;SDS011;29301;47.620;19.560;2023-05-07T09:05:18;0.13;;;0.13;;
43696;SDS011;29301;47.620;19.560;2023-05-07T09:07:44;0.10;;;0.10;;
43696;SDS011;29301;47.620;19.560;2023-05-07T09:10:11;0.20;;;0.20;;
43696;SDS011;29301;47.620;19.560;2023-05-07T09:12:37;0.28;;;0.20;;
43696;SDS011;29301;47.620;19.560;2023-05-07T09:15:04;0.25;;;0.20;;
43696;SDS011;29301;47.620;19.560;2023-05-07T09:17:30;0.32;;;0.20;;
43696;SDS011;29301;47.620;19.560;2023-05-07T09:19:56;0.40;;;0.22;;
43696;SDS011;29301;47.620;19.560;2023-05-07T09:22:26;0.20;;;0.20;;
43696;SDS011;29301;47.620;19.560;2023-05-07T09:24:52;0.40;;;0.20;;
43696;SDS011;29301;47.620;19.560;2023-05-07T09:27:17;0.20;;;0.20;;
43696;SDS011;29301;47.620;19.560;2023-05-07T09:29:43;0.20;;;0.20;;
43696;SDS011;29301;47.620;19.560;2023-05-07T09:32:10;0.20;;;0.20;;
43696;SDS011;29301;47.620;19.560;2023-05-07T09:34:35;0.20;;;0.20;;
43696;SDS011;29301;47.620;19.560;2023-05-07T09:37:02;0.20;;;0.20;;
43696;SDS011;29301;47.620;19.560;2023-05-07T09:39:48;0.30;;;0.20;;
43696;SDS011;29301;47.620;19.560;2023-05-07T09:42:14;0.30;;;0.20;;
43696;SDS011;29301;47.620;19.560;2023-05-07T09:44:40;0.30;;;0.20;;
43696;SDS011;29301;47.620;19.560;2023-05-07T09:47:08;0.30;;;0.20;;
43696;SDS011;29301;47.620;19.560;2023-05-07T09:49:35;0.20;;;0.20;;
43696;SDS011;29301;47.620;19.560;2023-05-07T09:52:03;0.30;;;0.20;;
43696;SDS011;29301;47.620;19.560;2023-05-07T09:54:34;0.30;;;0.20;;
43696;SDS011;29301;47.620;19.560;2023-05-07T09:57:03;0.32;;;0.20;;
43696;SDS011;29301;47.620;19.560;2023-05-07T09:59:33;0.40;;;0.30;;
43696;SDS011;29301;47.620;19.560;2023-05-07T10:02:01;0.40;;;0.30;;
43696;SDS011;29301;47.620;19.560;2023-05-07T10:04:29;0.20;;;0.20;;
43696;SDS011;29301;47.620;19.560;2023-05-07T10:06:55;0.40;;;0.22;;
43696;SDS011;29301;47.620;19.560;2023-05-07T10:09:22;0.38;;;0.20;;
43696;SDS011;29301;47.620;19.560;2023-05-07T10:11:49;0.38;;;0.20;;
43696;SDS011;29301;47.620;19.560;2023-05-07T10:14:15;0.40;;;0.30;;
43696;SDS011;29301;47.620;19.560;2023-05-07T10:16:40;0.20;;;0.20;;
43696;SDS011;29301;47.620;19.560;2023-05-07T10:19:07;0.20;;;0.20;;
43696;SDS011;29301;47.620;19.560;2023-05-07T10:21:37;0.20;;;0.20;;
43696;SDS011;29301;47.620;19.560;2023-05-07T10:26:31;0.13;;;0.13;;
43696;SDS011;29301;47.620;19.560;2023-05-07T10:29:04;0.20;;;0.20;;
43696;SDS011;29301;47.620;19.560;2023-05-07T10:34:11;0.20;;;0.20;;
43696;SDS011;29301;47.620;19.560;2023-05-07T10:36:41;0.17;;;0.17;;
43696;SDS011;29301;47.620;19.560;2023-05-07T10:39:07;0.20;;;0.20;;
43696;SDS011;29301;47.620;19.560;2023-05-07T10:41:33;0.20;;;0.20;;
43696;SDS011;29301;47.620;19.560;2023-05-07T10:43:59;0.20;;;0.20;;
43696;SDS011;29301;47.620;19.560;2023-05-07T10:46:27;0.10;;;0.10;;
43696;SDS011;29301;47.620;19.560;2023-05-07T10:51:28;0.20;;;0.20;;
43696;SDS011;29301;47.620;19.560;2023-05-07T10:56:36;0.20;;;0.20;;
43696;SDS011;29301;47.620;19.560;2023-05-07T11:01:50;0.40;;;0.30;;
43696;SDS011;29301;47.620;19.560;2023-05-07T11:04:17;0.40;;;0.30;;
43696;SDS011;29301;47.620;19.560;2023-05-07T11:15:01;0.40;;;0.30;;
43696;SDS011;29301;47.620;19.560;2023-05-07T11:17:31;0.40;;;0.30;;
43696;SDS011;29301;47.620;19.560;2023-05-07T11:19:59;0.38;;;0.28;;
43696;SDS011;29301;47.620;19.560;2023-05-07T11:25:05;0.40;;;0.30;;
43696;SDS011;29301;47.620;19.560;2023-05-07T11:27:31;0.40;;;0.30;;
43696;SDS011;29301;47.620;19.560;2023-05-07T11:29:58;0.40;;;0.30;;
43696;SDS011;29301;47.620;19.560;2023-05-07T11:32:26;0.20;;;0.20;;
43696;SDS011;29301;47.620;19.560;2023-05-07T11:34:54;0.28;;;0.20;;
43696;SDS011;29301;47.620;19.560;2023-05-07T11:37:20;0.10;;;0.10;;
43696;SDS011;29301;47.620;19.560;2023-05-07T11:39:48;0.20;;;0.20;;
43696;SDS011;29301;47.620;19.560;2023-05-07T11:42:30;0.40;;;0.30;;
43696;SDS011;29301;47.620;19.560;2023-05-07T11:44:57;0.30;;;0.20;;
43696;SDS011;29301;47.620;19.560;2023-05-07T11:47:24;0.30;;;0.20;;
43696;SDS011;29301;47.620;19.560;2023-05-07T11:49:53;0.20;;;0.20;;
43696;SDS011;29301;47.620;19.560;2023-05-07T11:52:20;0.30;;;0.20;;
43696;SDS011;29301;47.620;19.560;2023-05-07T11:54:54;0.10;;;0.10;;
43696;SDS011;29301;47.620;19.560;2023-05-07T11:57:21;0.20;;;0.20;;
43696;SDS011;29301;47.620;19.560;2023-05-07T11:59:56;0.20;;;0.20;;
43696;SDS011;29301;47.620;19.560;2023-05-07T12:04:53;0.20;;;0.20;;
43696;SDS011;29301;47.620;19.560;2023-05-07T12:07:19;0.30;;;0.20;;
43696;SDS011;29301;47.620;19.560;2023-05-07T12:09:46;0.30;;;0.20;;
43696;SDS011;29301;47.620;19.560;2023-05-07T12:12:12;0.17;;;0.17;;
43696;SDS011;29301;47.620;19.560;2023-05-07T12:14:40;0.30;;;0.20;;
43696;SDS011;29301;47.620;19.560;2023-05-07T12:17:07;0.40;;;0.20;;
43696;SDS011;29301;47.620;19.560;2023-05-07T12:19:35;0.30;;;0.20;;
43696;SDS011;29301;47.620;19.560;2023-05-07T12:22:04;0.20;;;0.20;;
43696;SDS011;29301;47.620;19.560;2023-05-07T12:24:48;0.20;;;0.20;;
43696;SDS011;29301;47.620;19.560;2023-05-07T12:27:15;0.10;;;0.10;;
43696;SDS011;29301;47.620;19.560;2023-05-07T12:29:46;0.20;;;0.20;;
43696;SDS011;29301;47.620;19.560;2023-05-07T12:32:13;0.10;;;0.10;;
43696;SDS011;29301;47.620;19.560;2023-05-07T12:34:40;0.20;;;0.20;;
43696;SDS011;29301;47.620;19.560;2023-05-07T12:37:05;0.20;;;0.20;;
43696;SDS011;29301;47.620;19.560;2023-05-07T12:39:31;0.30;;;0.20;;
43696;SDS011;29301;47.620;19.560;2023-05-07T12:42:00;0.20;;;0.20;;
43696;SDS011;29301;47.620;19.560;2023-05-07T12:44:30;0.32;;;0.20;;
43696;SDS011;29301;47.620;19.560;2023-05-07T12:46:57;0.20;;;0.20;;
43696;SDS011;29301;47.620;19.560;2023-05-07T12:49:23;0.20;;;0.20;;
43696;SDS011;29301;47.620;19.560;2023-05-07T12:51:49;0.10;;;0.10;;
43696;SDS011;29301;47.620;19.560;2023-05-07T12:54:31;0.20;;;0.20;;
43696;SDS011;29301;47.620;19.560;2023-05-07T12:59:32;0.10;;;0.10;;
43696;SDS011;29301;47.620;19.560;2023-05-07T13:02:01;0.20;;;0.15;;
43696;SDS011;29301;47.620;19.560;2023-05-07T13:04:27;0.20;;;0.20;;
43696;SDS011;29301;47.620;19.560;2023-05-07T13:06:53;0.20;;;0.20;;
43696;SDS011;29301;47.620;19.560;2023-05-07T13:09:18;0.20;;;0.20;;
43696;SDS011;29301;47.620;19.560;2023-05-07T13:11:44;0.20;;;0.20;;
43696;SDS011;29301;47.620;19.560;2023-05-07T13:14:10;0.20;;;0.20;;
43696;SDS011;29301;47.620;19.560;2023-05-07T13:16:35;0.10;;;0.10;;
43696;SDS011;29301;47.620;19.560;2023-05-07T13:19:01;0.17;;;0.17;;
43696;SDS011;29301;47.620;19.560;2023-05-07T13:21:27;0.20;;;0.20;;
43696;SDS011;29301;47.620;19.560;2023-05-07T13:23:52;0.25;;;0.20;;
43696;SDS011;29301;47.620;19.560;2023-05-07T13:26:18;0.28;;;0.20;;
43696;SDS011;29301;47.620;19.560;2023-05-07T13:28:44;0.20;;;0.20;;
43696;SDS011;29301;47.620;19.560;2023-05-07T13:31:09;0.17;;;0.17;;
43696;SDS011;29301;47.620;19.560;2023-05-07T13:33:35;0.28;;;0.22;;
43696;SDS011;29301;47.620;19.560;2023-05-07T13:36:01;0.20;;;0.20;;
43696;SDS011;29301;47.620;19.560;2023-05-07T13:38:29;0.20;;;0.20;;
43696;SDS011;29301;47.620;19.560;2023-05-07T13:40:55;0.22;;;0.20;;
43696;SDS011;29301;47.620;19.560;2023-05-07T13:43:21;0.30;;;0.20;;
43696;SDS011;29301;47.620;19.560;2023-05-07T13:45:47;0.20;;;0.20;;
43696;SDS011;29301;47.620;19.560;2023-05-07T13:48:12;0.40;;;0.20;;
43696;SDS011;29301;47.620;19.560;2023-05-07T13:50:38;0.40;;;0.20;;
43696;SDS011;29301;47.620;19.560;2023-05-07T13:53:04;0.30;;;0.20;;
43696;SDS011;29301;47.620;19.560;2023-05-07T13:55:30;0.20;;;0.20;;
43696;SDS011;29301;47.620;19.560;2023-05-07T13:57:59;0.20;;;0.20;;
43696;SDS011;29301;47.620;19.560;2023-05-07T14:00:26;0.30;;;0.20;;
43696;SDS011;29301;47.620;19.560;2023-05-07T14:02:53;0.30;;;0.20;;
43696;SDS011;29301;47.620;19.560;2023-05-07T14:05:19;0.20;;;0.20;;
43696;SDS011;29301;47.620;19.560;2023-05-07T14:07:45;0.20;;;0.20;;
43696;SDS011;29301;47.620;19.560;2023-05-07T14:10:11;0.30;;;0.20;;
43696;SDS011;29301;47.620;19.560;2023-05-07T14:12:38;0.22;;;0.20;;
43696;SDS011;29301;47.620;19.560;2023-05-07T14:15:06;0.28;;;0.20;;
43696;SDS011;29301;47.620;19.560;2023-05-07T14:17:32;0.30;;;0.20;;
43696;SDS011;29301;47.620;19.560;2023-05-07T14:19:58;0.30;;;0.20;;
43696;SDS011;29301;47.620;19.560;2023-05-07T14:22:24;0.20;;;0.20;;
43696;SDS011;29301;47.620;19.560;2023-05-07T14:24:49;0.20;;;0.20;;
43696;SDS011;29301;47.620;19.560;2023-05-07T14:27:15;0.28;;;0.20;;
43696;SDS011;29301;47.620;19.560;2023-05-07T14:29:41;0.20;;;0.20;;
43696;SDS011;29301;47.620;19.560;2023-05-07T14:32:08;0.30;;;0.20;;
43696;SDS011;29301;47.620;19.560;2023-05-07T14:34:34;0.32;;;0.20;;
43696;SDS011;29301;47.620;19.560;2023-05-07T14:37:00;0.30;;;0.22;;
43696;SDS011;29301;47.620;19.560;2023-05-07T14:39:26;0.30;;;0.20;;
43696;SDS011;29301;47.620;19.560;2023-05-07T14:41:52;0.38;;;0.20;;
43696;SDS011;29301;47.620;19.560;2023-05-07T14:44:19;0.40;;;0.22;;
43696;SDS011;29301;47.620;19.560;2023-05-07T14:46:45;0.25;;;0.20;;
43696;SDS011;29301;47.620;19.560;2023-05-07T14:49:11;0.20;;;0.20;;
43696;SDS011;29301;47.620;19.560;2023-05-07T14:51:42;0.30;;;0.20;;
43696;SDS011;29301;47.620;19.560;2023-05-07T14:54:11;0.30;;;0.20;;
43696;SDS011;29301;47.620;19.560;2023-05-07T14:56:38;0.22;;;0.20;;
43696;SDS011;29301;47.620;19.560;2023-05-07T14:59:03;0.20;;;0.20;;